Skip Navigation LinksHome page > Weather > Current weather Skip Navigation Links

Current Weather

Lewis University, Romeoville, Ill.

For information only: do not use for flight planning or navigation.
Latest weather
Observation time Tuesday, October 19, 2021 3:15 PM CDT
Local time Tuesday, October 19, 2021 3:32 PM CDT
Flight conditions Visual Meteorological Conditions
Winds
Wind direction South-Southwest (210°)
Wind speed 13 mph
Visibility 10 mi.
Sky condition
Ceiling unlimited
Sky clear
Temperature 70°F
Dewpoint 46°F
Altimeter 30.07 in.Hg
Derived measurements
Relative humidity 41%
Density altitude 1391 ft.
Remarks
Fully automated report.
Automated weather observing station with precipitation discriminator.
METAR KLOT 192015Z AUTO 21011KT 10SM CLR 21/08 A3007 RMK AO2 T02130076

Settings

Location code

InnerDrive.Weather 4.0.6770.0 Release CLR 4.0.30319.42000
Copyright ©2018 Inner Drive Technology. All rights reserved. Portions Copyright ©1986-2018 David Braverman.

Find weather

Site navigation


Skip Navigation Links

Place info

Page info

PayPal - The safer, easier way to pay online!

Return home.

Copyright ©2021 Inner Drive Technology. Purveyors of fine, hand-crafted computer software. Page printed 2021-10-19T20:32:28 UTC.